createdAt,value
2022-07-28T00:00:33.883Z,21.89
2022-07-28T00:03:02.092Z,21.96
2022-07-28T00:05:30.514Z,21.93
2022-07-28T00:07:59.176Z,21.94
2022-07-28T00:10:27.443Z,21.89
2022-07-28T00:12:55.717Z,21.91
2022-07-28T00:15:25.209Z,21.88
2022-07-28T00:17:53.934Z,21.75
2022-07-28T00:20:22.273Z,21.71
2022-07-28T00:22:50.442Z,21.73
2022-07-28T00:25:18.622Z,21.80
2022-07-28T00:27:46.803Z,21.79
2022-07-28T00:30:15.204Z,21.75
2022-07-28T00:32:44.808Z,21.75
2022-07-28T00:35:13.131Z,21.74
2022-07-28T00:37:43.143Z,21.73
2022-07-28T00:40:13.010Z,21.69
2022-07-28T00:42:41.145Z,21.66
2022-07-28T00:45:10.770Z,21.75
2022-07-28T00:47:38.985Z,21.64
2022-07-28T00:50:09.463Z,21.64
2022-07-28T00:52:37.871Z,21.64
2022-07-28T00:55:07.282Z,21.65
2022-07-28T00:57:35.717Z,21.56
2022-07-28T01:00:05.247Z,21.58
2022-07-28T01:02:33.457Z,21.58
2022-07-28T01:05:01.648Z,21.57
2022-07-28T01:07:39.977Z,21.51
2022-07-28T01:10:13.700Z,21.59
2022-07-28T01:12:59.612Z,21.47
2022-07-28T01:15:41.987Z,21.38
2022-07-28T01:18:16.948Z,21.37
2022-07-28T01:20:48.460Z,21.34
2022-07-28T01:23:44.082Z,21.32
2022-07-28T01:26:35.332Z,21.26
2022-07-28T01:29:17.159Z,21.22
2022-07-28T01:31:55.063Z,21.17
2022-07-28T01:34:31.678Z,21.14
2022-07-28T01:37:06.806Z,21.14
2022-07-28T01:39:38.596Z,21.13
2022-07-28T01:42:09.637Z,21.09
2022-07-28T01:44:42.775Z,21.07
2022-07-28T01:47:13.133Z,20.99
2022-07-28T01:49:45.054Z,20.99
2022-07-28T01:52:14.676Z,20.99
2022-07-28T01:54:46.569Z,20.94
2022-07-28T01:57:18.660Z,20.90
2022-07-28T01:59:48.210Z,20.90
2022-07-28T02:02:23.477Z,20.93
2022-07-28T02:04:53.156Z,20.89
2022-07-28T02:07:23.412Z,20.87
2022-07-28T02:09:51.982Z,20.89
2022-07-28T02:12:21.079Z,20.83
2022-07-28T02:14:51.872Z,20.77
2022-07-28T02:17:26.223Z,20.69
2022-07-28T02:19:54.930Z,20.63
2022-07-28T02:22:23.722Z,20.63
2022-07-28T02:24:54.195Z,20.63
2022-07-28T02:27:25.626Z,20.60
2022-07-28T02:30:04.660Z,20.59
2022-07-28T02:32:41.660Z,20.58
2022-07-28T02:35:19.939Z,20.57
2022-07-28T02:38:05.513Z,20.56
2022-07-28T02:40:38.204Z,20.54
2022-07-28T02:43:11.501Z,20.54
2022-07-28T02:45:43.872Z,20.52
2022-07-28T02:48:18.477Z,20.46
2022-07-28T02:50:47.895Z,20.46
2022-07-28T02:53:17.740Z,20.42
2022-07-28T02:55:48.725Z,20.41
2022-07-28T02:58:19.425Z,20.43
2022-07-28T03:00:48.491Z,20.43
2022-07-28T03:03:19.644Z,20.46
2022-07-28T03:05:48.673Z,20.43
2022-07-28T03:08:18.061Z,20.44
2022-07-28T03:10:46.654Z,20.44
2022-07-28T03:13:14.803Z,20.38
2022-07-28T03:15:42.856Z,20.39
2022-07-28T03:18:10.929Z,20.39
2022-07-28T03:20:40.418Z,20.36
2022-07-28T03:23:10.590Z,20.27
2022-07-28T03:25:47.485Z,20.33
2022-07-28T03:28:20.905Z,20.27
2022-07-28T03:30:56.827Z,20.22
2022-07-28T03:33:25.596Z,20.16
2022-07-28T03:35:59.019Z,20.14
2022-07-28T03:38:34.760Z,20.08
2022-07-28T03:41:03.775Z,20.04
2022-07-28T03:43:34.539Z,20.00
2022-07-28T03:46:02.777Z,19.95
2022-07-28T03:48:31.366Z,19.95
2022-07-28T03:51:00.750Z,19.96
2022-07-28T03:53:30.659Z,19.92
2022-07-28T03:55:59.110Z,19.89
2022-07-28T03:58:29.288Z,19.89
2022-07-28T04:00:57.731Z,19.85
2022-07-28T04:03:42.726Z,19.84
2022-07-28T04:06:15.045Z,19.79
2022-07-28T04:08:44.662Z,19.76
2022-07-28T04:11:13.584Z,19.72
2022-07-28T04:13:41.668Z,19.70
2022-07-28T04:16:09.834Z,19.64
2022-07-28T04:18:38.072Z,19.56
2022-07-28T04:21:07.762Z,19.56
2022-07-28T04:23:37.128Z,19.58
2022-07-28T04:26:05.413Z,19.56
2022-07-28T04:28:33.416Z,19.57
2022-07-28T04:31:01.539Z,19.60
2022-07-28T04:33:30.498Z,19.63
2022-07-28T04:36:00.723Z,19.66
2022-07-28T04:38:28.971Z,19.71
2022-07-28T04:40:58.487Z,19.75
2022-07-28T04:43:26.624Z,19.79
2022-07-28T04:45:54.820Z,19.81
2022-07-28T04:48:23.978Z,19.78
2022-07-28T04:50:52.716Z,19.81
2022-07-28T04:53:24.123Z,19.87
2022-07-28T04:55:54.560Z,19.89
2022-07-28T04:58:26.960Z,19.94
2022-07-28T05:00:59.011Z,19.91
2022-07-28T05:03:27.167Z,19.91
2022-07-28T05:05:55.451Z,19.91
2022-07-28T05:08:26.164Z,19.97
2022-07-28T05:10:56.733Z,20.03
2022-07-28T05:13:31.809Z,20.06
2022-07-28T05:16:01.578Z,20.04
2022-07-28T05:18:29.772Z,20.07
2022-07-28T05:20:57.807Z,20.03
2022-07-28T05:23:25.876Z,20.10
2022-07-28T05:25:54.448Z,20.13
2022-07-28T05:28:22.478Z,20.16
2022-07-28T05:30:51.933Z,20.20
2022-07-28T05:33:19.948Z,20.18
2022-07-28T05:35:54.625Z,20.24
2022-07-28T05:38:22.783Z,20.22
2022-07-28T05:40:51.008Z,20.27
2022-07-28T05:43:19.190Z,20.36
2022-07-28T05:45:47.576Z,20.42
2022-07-28T05:48:18.355Z,20.50
2022-07-28T05:50:47.233Z,20.50
2022-07-28T05:53:15.862Z,20.58
2022-07-28T05:56:00.382Z,20.67
2022-07-28T05:58:30.732Z,20.66
2022-07-28T06:01:01.921Z,20.83
2022-07-28T06:03:39.756Z,20.82
2022-07-28T06:06:16.002Z,20.75
2022-07-28T06:08:47.177Z,20.76
2022-07-28T06:11:22.836Z,20.86
2022-07-28T06:13:52.844Z,20.91
2022-07-28T06:16:23.205Z,21.03
2022-07-28T06:18:53.891Z,20.97
2022-07-28T06:21:24.217Z,21.04
2022-07-28T06:23:52.348Z,21.07
2022-07-28T06:26:23.554Z,21.18
2022-07-28T06:28:52.186Z,21.24
2022-07-28T06:31:20.355Z,21.19
2022-07-28T06:33:48.446Z,21.31
2022-07-28T06:36:17.844Z,21.46
2022-07-28T06:38:45.996Z,21.46
2022-07-28T06:41:14.101Z,21.44
2022-07-28T06:43:42.141Z,21.47
2022-07-28T06:46:10.204Z,21.51
2022-07-28T06:48:39.363Z,21.58
2022-07-28T06:51:07.715Z,21.54
2022-07-28T06:53:37.153Z,21.59
2022-07-28T06:56:06.671Z,21.66
2022-07-28T06:58:35.793Z,21.63
2022-07-28T07:01:07.619Z,21.64
2022-07-28T07:03:36.113Z,21.81
2022-07-28T07:06:04.555Z,22.11
2022-07-28T07:08:32.858Z,22.31
2022-07-28T07:11:02.417Z,22.23
2022-07-28T07:13:30.491Z,22.26
2022-07-28T07:15:58.632Z,22.32
2022-07-28T07:18:26.932Z,22.38
2022-07-28T07:20:58.639Z,22.29
2022-07-28T07:23:26.836Z,22.43
2022-07-28T07:25:55.076Z,22.49
2022-07-28T07:28:24.531Z,22.44
2022-07-28T07:30:52.637Z,22.54
2022-07-28T07:33:20.810Z,22.63
2022-07-28T07:35:48.841Z,22.69
2022-07-28T07:38:16.911Z,22.69
2022-07-28T07:40:45.112Z,22.81
2022-07-28T07:43:13.818Z,22.79
2022-07-28T07:45:43.299Z,22.71
2022-07-28T07:48:12.586Z,22.73
2022-07-28T07:50:40.723Z,22.73
2022-07-28T07:53:08.821Z,22.89
2022-07-28T07:55:37.850Z,23.20
2022-07-28T07:58:06.632Z,23.17
2022-07-28T08:00:35.782Z,23.13
2022-07-28T08:03:11.191Z,23.30
2022-07-28T08:05:40.417Z,23.52
2022-07-28T08:08:09.507Z,23.70
2022-07-28T08:10:40.487Z,23.71
2022-07-28T08:13:09.934Z,23.67
2022-07-28T08:15:37.991Z,23.71
2022-07-28T08:18:07.511Z,23.74
2022-07-28T08:20:35.564Z,23.96
2022-07-28T08:23:03.703Z,24.10
2022-07-28T08:25:31.780Z,24.12
2022-07-28T08:27:59.857Z,24.21
2022-07-28T08:30:32.427Z,24.28
2022-07-28T08:33:02.718Z,24.37
2022-07-28T08:35:35.149Z,24.44
2022-07-28T08:38:05.347Z,24.46
2022-07-28T08:40:33.777Z,24.53
2022-07-28T08:43:53.482Z,24.61
2022-07-28T08:46:25.624Z,24.83
2022-07-28T08:48:54.100Z,24.78
2022-07-28T08:51:28.408Z,24.96
2022-07-28T08:53:58.531Z,24.96
2022-07-28T08:56:28.057Z,25.07
2022-07-28T08:58:56.924Z,25.23
2022-07-28T09:01:25.694Z,25.09
2022-07-28T09:04:08.992Z,25.20
2022-07-28T09:06:41.994Z,25.41
2022-07-28T09:09:10.913Z,25.37
2022-07-28T09:11:39.948Z,25.33
2022-07-28T09:14:08.144Z,25.51
2022-07-28T09:16:36.212Z,25.65
2022-07-28T09:19:04.613Z,25.46
2022-07-28T09:21:33.307Z,25.56
2022-07-28T09:24:02.714Z,25.90
2022-07-28T09:26:30.756Z,25.93
2022-07-28T09:29:02.312Z,25.99
2022-07-28T09:31:31.254Z,25.96
2022-07-28T09:34:02.377Z,26.20
2022-07-28T09:36:37.659Z,26.22
2022-07-28T09:39:07.382Z,26.14
2022-07-28T09:41:48.938Z,26.27
2022-07-28T09:44:20.386Z,26.28
2022-07-28T09:46:48.840Z,26.48
2022-07-28T09:49:17.442Z,26.61
2022-07-28T09:52:01.459Z,26.49
2022-07-28T09:54:30.913Z,26.66
2022-07-28T09:56:59.086Z,26.93
2022-07-28T09:59:27.583Z,27.01
2022-07-28T10:02:00.996Z,26.95
2022-07-28T10:04:32.622Z,26.80
2022-07-28T10:07:06.500Z,27.16
2022-07-28T10:09:36.515Z,27.13
2022-07-28T10:12:19.708Z,27.12
2022-07-28T10:14:48.226Z,27.32
2022-07-28T10:17:31.901Z,27.34
2022-07-28T10:20:01.375Z,27.50
2022-07-28T10:22:33.320Z,27.38
2022-07-28T10:25:09.657Z,27.35
2022-07-28T10:27:41.361Z,27.29
2022-07-28T10:30:11.703Z,27.44
2022-07-28T10:32:43.223Z,27.33
2022-07-28T10:35:13.752Z,27.42
2022-07-28T10:37:52.327Z,27.77
2022-07-28T10:40:27.401Z,27.94
2022-07-28T10:42:56.306Z,27.89
2022-07-28T10:45:42.023Z,28.13
2022-07-28T10:48:13.942Z,28.26
2022-07-28T10:50:42.452Z,28.32
2022-07-28T10:53:20.364Z,28.54
2022-07-28T10:55:55.901Z,28.40
2022-07-28T10:58:40.051Z,28.44
2022-07-28T11:01:17.077Z,28.49
2022-07-28T11:03:54.935Z,28.47
2022-07-28T11:06:34.657Z,28.48
2022-07-28T11:09:32.847Z,28.55
2022-07-28T11:12:02.673Z,28.33
2022-07-28T11:14:39.559Z,28.25
2022-07-28T11:17:24.417Z,28.02
2022-07-28T11:20:27.164Z,27.87
2022-07-28T11:22:51.618Z,28.02
2022-07-28T11:25:22.311Z,27.87
2022-07-28T11:28:05.995Z,27.87
2022-07-28T11:30:55.202Z,28.08
2022-07-28T11:33:24.767Z,28.11
2022-07-28T11:35:58.914Z,28.03
2022-07-28T11:38:28.312Z,28.04
2022-07-28T11:40:57.604Z,28.01
2022-07-28T11:43:41.039Z,28.15
2022-07-28T11:46:36.080Z,28.09
2022-07-28T11:49:21.780Z,27.96
2022-07-28T11:52:23.101Z,27.87
2022-07-28T11:54:57.161Z,28.04
2022-07-28T11:57:29.406Z,28.11
2022-07-28T12:00:07.074Z,27.96
2022-07-28T12:02:37.177Z,27.91
2022-07-28T12:05:12.589Z,28.13
2022-07-28T12:07:48.500Z,28.10
2022-07-28T12:10:53.969Z,28.36
2022-07-28T12:13:29.954Z,28.33
2022-07-28T12:15:59.431Z,28.33
2022-07-28T12:18:27.555Z,28.40
2022-07-28T12:20:56.022Z,28.58
2022-07-28T12:23:38.664Z,28.50
2022-07-28T12:26:13.844Z,28.64
2022-07-28T12:28:51.505Z,28.81
2022-07-28T12:31:25.796Z,28.91
2022-07-28T12:33:54.471Z,29.00
2022-07-28T12:36:24.176Z,29.05
2022-07-28T12:38:53.524Z,29.10
2022-07-28T12:41:21.802Z,29.00
2022-07-28T12:43:55.188Z,28.88
2022-07-28T12:46:28.621Z,28.81
2022-07-28T12:48:59.167Z,29.02
2022-07-28T12:51:36.249Z,28.98
2022-07-28T12:54:07.349Z,28.79
2022-07-28T12:56:47.003Z,28.82
2022-07-28T12:59:16.079Z,28.88
2022-07-28T13:01:54.533Z,28.82
2022-07-28T13:04:45.325Z,28.88
2022-07-28T13:07:15.646Z,28.77
2022-07-28T13:10:00.291Z,28.72
2022-07-28T13:12:30.798Z,28.69
2022-07-28T13:15:00.787Z,28.71
2022-07-28T13:17:49.317Z,28.70
2022-07-28T13:20:18.045Z,28.74
2022-07-28T13:22:46.652Z,28.76
2022-07-28T13:25:15.605Z,28.72
2022-07-28T13:27:43.977Z,28.79
2022-07-28T13:30:13.164Z,28.83
2022-07-28T13:32:42.711Z,28.96
2022-07-28T13:35:14.934Z,28.98
2022-07-28T13:37:44.058Z,29.05
2022-07-28T13:40:13.546Z,29.01
2022-07-28T13:42:52.951Z,29.03
2022-07-28T13:45:24.734Z,28.95
2022-07-28T13:47:59.562Z,29.01
2022-07-28T13:50:27.879Z,28.98
2022-07-28T13:52:56.123Z,28.98
2022-07-28T13:55:24.664Z,29.02
2022-07-28T13:57:56.559Z,29.00
2022-07-28T14:00:25.292Z,29.37
2022-07-28T14:02:53.441Z,29.14
2022-07-28T14:05:23.065Z,29.23
2022-07-28T14:07:51.619Z,29.30
2022-07-28T14:10:19.760Z,29.22
2022-07-28T14:12:47.801Z,29.16
2022-07-28T14:15:16.230Z,29.14
2022-07-28T14:17:45.957Z,29.11
2022-07-28T14:20:15.678Z,29.11
2022-07-28T14:22:46.861Z,29.17
2022-07-28T14:25:20.684Z,29.23
2022-07-28T14:27:50.649Z,29.30
2022-07-28T14:30:19.730Z,29.22
2022-07-28T14:32:47.961Z,29.24
2022-07-28T14:40:59.765Z,29.02
2022-07-28T14:43:27.816Z,29.15
2022-07-28T14:46:12.522Z,29.13
2022-07-28T14:48:43.106Z,29.21
2022-07-28T14:51:12.699Z,29.21
2022-07-28T14:53:51.537Z,29.24
2022-07-28T14:56:20.386Z,29.19
2022-07-28T14:58:48.480Z,29.20
2022-07-28T15:01:16.533Z,29.24
2022-07-28T15:03:44.656Z,29.23
2022-07-28T15:06:12.759Z,29.17
2022-07-28T15:08:40.799Z,29.20
2022-07-28T15:11:10.368Z,29.25
2022-07-28T15:13:38.423Z,29.23
2022-07-28T15:16:07.432Z,29.21
2022-07-28T15:18:35.817Z,29.25
2022-07-28T15:21:04.533Z,29.28
2022-07-28T15:23:32.603Z,29.25
2022-07-28T15:26:00.734Z,29.39
2022-07-28T15:28:33.486Z,29.41
2022-07-28T15:31:01.668Z,29.46
2022-07-28T15:33:29.863Z,29.43
2022-07-28T15:36:00.753Z,29.47
2022-07-28T15:38:31.630Z,29.46
2022-07-28T15:41:00.410Z,29.26
2022-07-28T15:43:28.887Z,29.33
2022-07-28T15:45:58.608Z,29.34
2022-07-28T15:48:26.686Z,29.35
2022-07-28T15:50:54.720Z,29.06
2022-07-28T15:53:22.764Z,29.21
2022-07-28T15:55:51.877Z,29.21
2022-07-28T15:58:20.481Z,29.12
2022-07-28T16:00:49.035Z,29.12
2022-07-28T16:03:18.479Z,29.03
2022-07-28T16:05:49.780Z,28.93
2022-07-28T16:08:22.410Z,29.06
2022-07-28T16:10:53.103Z,29.06
2022-07-28T16:13:36.190Z,29.06
2022-07-28T16:16:08.213Z,29.11
2022-07-28T16:18:40.101Z,29.06
2022-07-28T16:21:09.932Z,28.88
2022-07-28T16:23:38.147Z,28.89
2022-07-28T16:26:09.033Z,28.87
2022-07-28T16:28:37.340Z,28.96
2022-07-28T16:31:05.769Z,29.00
2022-07-28T16:33:34.115Z,29.04
2022-07-28T16:36:04.032Z,28.94
2022-07-28T16:38:32.091Z,28.96
2022-07-28T16:41:00.163Z,28.97
2022-07-28T16:43:28.223Z,28.98
2022-07-28T16:45:56.353Z,28.87
2022-07-28T16:48:24.468Z,28.80
2022-07-28T16:50:52.559Z,28.83
2022-07-28T16:53:22.131Z,28.81
2022-07-28T16:55:50.285Z,28.80
2022-07-28T16:58:19.941Z,28.77
2022-07-28T17:00:48.005Z,28.77
2022-07-28T17:03:16.936Z,28.70
2022-07-28T17:05:45.469Z,28.69
2022-07-28T17:08:13.598Z,28.73
2022-07-28T17:10:43.033Z,28.67
2022-07-28T17:13:11.995Z,28.69
2022-07-28T17:15:41.425Z,28.74
2022-07-28T17:18:09.585Z,28.66
2022-07-28T17:20:41.913Z,28.60
2022-07-28T17:23:10.369Z,28.58
2022-07-28T17:28:28.438Z,28.45
2022-07-28T17:30:56.704Z,28.46
2022-07-28T17:33:25.119Z,28.42
2022-07-28T17:35:55.055Z,28.39
2022-07-28T17:38:29.493Z,28.38
2022-07-28T17:41:03.768Z,28.40
2022-07-28T17:43:33.333Z,28.35
2022-07-28T17:46:01.600Z,28.30
2022-07-28T17:48:31.050Z,28.28
2022-07-28T17:50:59.319Z,28.28
2022-07-28T17:53:27.531Z,28.36
2022-07-28T17:56:01.183Z,28.24
2022-07-28T17:58:32.192Z,28.26
2022-07-28T18:01:09.697Z,28.21
2022-07-28T18:03:58.866Z,28.23
2022-07-28T18:06:32.107Z,28.24
2022-07-28T18:09:05.770Z,28.16
2022-07-28T18:11:55.663Z,28.11
2022-07-28T18:14:25.418Z,28.08
2022-07-28T18:16:55.190Z,28.02
2022-07-28T18:19:23.255Z,28.06
2022-07-28T18:21:51.531Z,28.10
2022-07-28T18:24:22.214Z,28.06
2022-07-28T18:26:51.027Z,28.05
2022-07-28T18:29:20.307Z,28.02
2022-07-28T18:31:52.029Z,28.00
2022-07-28T18:34:24.654Z,28.04
2022-07-28T18:36:53.622Z,28.03
2022-07-28T18:39:22.183Z,28.01
2022-07-28T18:41:50.201Z,28.03
2022-07-28T18:44:19.513Z,28.05
2022-07-28T18:46:48.360Z,27.94
2022-07-28T18:49:16.677Z,27.98
2022-07-28T18:51:46.157Z,27.97
2022-07-28T18:54:18.506Z,27.87
2022-07-28T18:56:48.335Z,27.79
2022-07-28T18:59:16.587Z,27.73
2022-07-28T19:01:44.888Z,27.64
2022-07-28T19:04:13.445Z,27.61
2022-07-28T19:06:42.380Z,27.63
2022-07-28T19:09:11.854Z,27.58
2022-07-28T19:11:45.368Z,27.56
2022-07-28T19:14:14.497Z,27.47
2022-07-28T19:16:42.829Z,27.41
2022-07-28T19:19:11.040Z,27.45
2022-07-28T19:21:43.545Z,27.40
2022-07-28T19:24:14.862Z,27.43
2022-07-28T19:26:45.562Z,27.33
2022-07-28T19:29:14.210Z,27.37
2022-07-28T19:31:42.389Z,27.39
2022-07-28T19:34:10.940Z,27.43
2022-07-28T19:36:40.330Z,27.45
2022-07-28T19:39:08.982Z,27.44
2022-07-28T19:41:38.447Z,27.30
2022-07-28T19:44:06.649Z,27.31
2022-07-28T19:46:34.759Z,27.24
2022-07-28T19:49:03.149Z,27.23
2022-07-28T19:51:31.325Z,27.21
2022-07-28T19:54:00.325Z,27.22
2022-07-28T19:56:31.586Z,27.23
2022-07-28T19:59:01.415Z,27.22
2022-07-28T20:01:33.628Z,27.18
2022-07-28T20:04:05.158Z,27.11
2022-07-28T20:06:34.289Z,27.06
2022-07-28T20:09:03.575Z,27.01
2022-07-28T20:11:32.762Z,26.98
2022-07-28T20:14:02.589Z,26.96
2022-07-28T20:16:31.450Z,26.88
2022-07-28T20:18:59.704Z,26.92
2022-07-28T20:21:27.936Z,26.84
2022-07-28T20:23:57.798Z,26.77
2022-07-28T20:26:27.015Z,26.73
2022-07-28T20:28:56.255Z,26.67
2022-07-28T20:31:25.973Z,26.67
2022-07-28T20:33:54.138Z,26.62
2022-07-28T20:36:25.071Z,26.50
2022-07-28T20:38:57.433Z,26.42
2022-07-28T20:41:25.587Z,26.34
2022-07-28T20:44:18.507Z,26.27
2022-07-28T20:46:43.568Z,26.25
2022-07-28T20:49:11.679Z,26.09
2022-07-28T20:51:40.167Z,26.09
2022-07-28T20:54:19.045Z,26.03
2022-07-28T20:56:47.237Z,26.04
2022-07-28T20:59:15.677Z,25.90
2022-07-28T21:01:45.159Z,25.95
2022-07-28T21:04:13.724Z,25.97
2022-07-28T21:06:50.925Z,25.89
2022-07-28T21:09:20.832Z,25.92
2022-07-28T21:11:48.905Z,25.92
2022-07-28T21:14:17.254Z,25.85
2022-07-28T21:16:46.990Z,25.82
2022-07-28T21:19:15.091Z,25.80
2022-07-28T21:21:43.189Z,25.72
2022-07-28T21:24:11.270Z,25.63
2022-07-28T21:26:41.609Z,25.68
2022-07-28T21:29:12.296Z,25.62
2022-07-28T21:32:02.354Z,25.59
2022-07-28T21:34:33.919Z,25.55
2022-07-28T21:37:03.169Z,25.54
2022-07-28T21:39:31.516Z,25.50
2022-07-28T21:41:59.897Z,25.48
2022-07-28T21:44:28.099Z,25.41
2022-07-28T21:46:56.142Z,25.45
2022-07-28T21:49:24.409Z,25.39
2022-07-28T21:51:53.964Z,25.42
2022-07-28T21:54:22.042Z,25.32
2022-07-28T21:56:50.184Z,25.29
2022-07-28T21:59:18.230Z,25.20
2022-07-28T22:01:46.339Z,25.14
2022-07-28T22:04:14.764Z,25.12
2022-07-28T22:06:44.044Z,25.08
2022-07-28T22:09:16.352Z,25.03
2022-07-28T22:11:45.357Z,25.06
2022-07-28T22:14:13.981Z,24.99
2022-07-28T22:16:42.296Z,24.98
2022-07-28T22:19:11.881Z,24.94
2022-07-28T22:21:39.988Z,24.92
2022-07-28T22:24:09.126Z,24.86
2022-07-28T22:26:38.486Z,24.86
2022-07-28T22:29:06.592Z,24.87
2022-07-28T22:31:34.779Z,24.82
2022-07-28T22:34:03.012Z,24.71
2022-07-28T22:36:31.173Z,24.76
2022-07-28T22:38:59.445Z,24.74
2022-07-28T22:41:27.535Z,24.69
2022-07-28T22:43:57.162Z,24.69
2022-07-28T22:46:25.235Z,24.62
2022-07-28T22:48:53.330Z,24.64
2022-07-28T22:51:21.566Z,24.58
2022-07-28T22:53:49.632Z,24.60
2022-07-28T22:56:18.102Z,24.58
2022-07-28T22:58:46.193Z,24.59
2022-07-28T23:01:15.710Z,24.52
2022-07-28T23:03:46.194Z,24.48
2022-07-28T23:06:14.569Z,24.42
2022-07-28T23:08:42.787Z,24.44
2022-07-28T23:11:10.885Z,24.40
2022-07-28T23:13:39.030Z,24.41
2022-07-28T23:16:09.107Z,24.39
2022-07-28T23:18:40.302Z,24.36
2022-07-28T23:21:08.842Z,24.35
2022-07-28T23:23:37.071Z,24.28
2022-07-28T23:26:05.994Z,24.31
2022-07-28T23:28:36.026Z,24.22
2022-07-28T23:31:04.251Z,24.22
2022-07-28T23:33:54.999Z,24.16
2022-07-28T23:36:27.607Z,24.11
2022-07-28T23:38:57.541Z,24.05
2022-07-28T23:41:26.732Z,24.02
2022-07-28T23:43:54.915Z,24.00
2022-07-28T23:46:24.293Z,23.97
2022-07-28T23:48:52.567Z,24.00
2022-07-28T23:51:22.543Z,23.89
2022-07-28T23:54:10.588Z,23.87
2022-07-28T23:56:43.064Z,23.79
2022-07-28T23:59:13.967Z,23.77
